Latest Weather Observations for Kurnell

IDN60801

Issued at 7:05 am EST Friday 18 April 2014 (issued every 30 minutes, with the page automatically refreshed every 10 minutes)

About weather observations | Map of weather stations | Latest weather observations for NSW | Other Formats
Station Details ID: 066043 Name: KURNELL AWS Lat: -34.00 Lon: 151.21 Height: 4.0 m
Data from the previous 72 hours. | See also: Recent months for locations in New South Wales
Date/Time
EST
Temp
°C
App
Temp
°C
Dew
Point
Rel
Hum
%
Delta-T
°C
Wind Press
QNH
hPa
Press
MSL
hPa
Rain
since 9 am
mm
Dir
 
Spd
km/h
Gust
km/h
Spd
kts
Gust
kts
18/07:00am - - - - - W 26 30 14 16 - - -
18/06:30am - - - - - WNW 17 20 9 11 - - -
18/06:00am - - - - - WNW 15 19 8 10 - - -
18/05:30am - - - - - NW 17 19 9 10 - - -
18/05:00am - - - - - NW 17 19 9 10 - - -
18/04:30am - - - - - NNW 15 17 8 9 - - -
18/04:00am - - - - - WNW 13 19 7 10 - - -
18/03:30am - - - - - WNW 15 19 8 10 - - -
18/03:00am - - - - - WNW 17 19 9 10 - - -
18/02:30am - - - - - WNW 13 17 7 9 - - -
18/02:00am - - - - - W 15 19 8 10 - - -
18/01:30am - - - - - W 19 24 10 13 - - -
18/01:00am - - - - - W 19 26 10 14 - - -
18/12:30am - - - - - W 20 24 11 13 - - -
18/12:00am - - - - - WNW 20 24 11 13 - - -
 
Date/Time
EST
Temp
°C
App
Temp
°C
Dew
Point
Rel
Hum
%
Delta-T
°C
Wind Press
QNH
hPa
Press
MSL
hPa
Rain
since 9 am
mm
Dir
 
Spd
km/h
Gust
km/h
Spd
kts
Gust
kts
17/11:30pm - - - - - W 22 24 12 13 - - -
17/11:00pm - - - - - W 26 28 14 15 - - -
17/10:30pm - - - - - W 22 26 12 14 - - -
17/10:00pm - - - - - W 22 28 12 15 - - -
17/09:30pm - - - - - WNW 22 26 12 14 - - -
17/09:00pm - - - - - SW 20 26 11 14 - - -
17/08:30pm - - - - - S 26 33 14 18 - - -
17/08:00pm - - - - - S 24 32 13 17 - - -
17/07:30pm - - - - - S 26 35 14 19 - - -
17/07:00pm - - - - - S 30 37 16 20 - - -
17/06:30pm - - - - - S 30 39 16 21 - - -
17/06:00pm - - - - - S 26 35 14 19 - - -
17/05:30pm - - - - - S 30 39 16 21 - - -
17/05:00pm - - - - - S 32 41 17 22 - - -
17/04:30pm - - - - - S 32 44 17 24 - - -
17/04:00pm - - - - - S 35 48 19 26 - - -
17/03:30pm - - - - - S 35 46 19 25 - - -
17/03:00pm - - - - - S 33 46 18 25 - - -
17/02:30pm - - - - - S 32 39 17 21 - - -
17/02:00pm - - - - - SSW 32 43 17 23 - - -
17/01:30pm - - - - - SSW 28 37 15 20 - - -
17/01:00pm - - - - - SSW 30 39 16 21 - - -
17/12:30pm - - - - - S 32 39 17 21 - - -
17/12:00pm - - - - - SSW 30 39 16 21 - - -
17/11:30am - - - - - SSW 30 37 16 20 - - -
17/11:00am - - - - - SSW 30 37 16 20 - - -
17/10:30am - - - - - SSW 30 37 16 20 - - -
17/10:00am - - - - - SSW 28 39 15 21 - - -
17/09:30am - - - - - SSW 24 35 13 19 - - -
17/09:00am - - - - - W 13 17 7 9 - - -
17/08:30am - - - - - WSW 6 11 3 6 - - -
17/08:00am - - - - - W 17 19 9 10 - - -
17/07:30am - - - - - W 15 17 8 9 - - -
17/07:00am - - - - - W 19 22 10 12 - - -
17/06:30am - - - - - W 17 20 9 11 - - -
17/06:00am - - - - - W 17 20 9 11 - - -
17/05:30am - - - - - W 17 19 9 10 - - -
17/05:00am - - - - - WNW 15 17 8 9 - - -
17/04:30am - - - - - W 13 13 7 7 - - -
17/04:00am - - - - - W 13 15 7 8 - - -
17/03:30am - - - - - W 19 20 10 11 - - -
17/03:00am - - - - - W 19 20 10 11 - - -
17/02:30am - - - - - W 19 19 10 10 - - -
17/02:00am - - - - - WNW 17 19 9 10 - - -
17/01:30am - - - - - WNW 17 19 9 10 - - -
17/01:00am - - - - - W 17 19 9 10 - - -
17/12:30am - - - - - W 17 20 9 11 - - -
17/12:00am - - - - - W 17 20 9 11 - - -
 
Date/Time
EST
Temp
°C
App
Temp
°C
Dew
Point
Rel
Hum
%
Delta-T
°C
Wind Press
QNH
hPa
Press
MSL
hPa
Rain
since 9 am
mm
Dir
 
Spd
km/h
Gust
km/h
Spd
kts
Gust
kts
16/11:30pm - - - - - W 17 20 9 11 - - -
16/11:00pm - - - - - WSW 15 17 8 9 - - -
16/10:30pm - - - - - WSW 17 19 9 10 - - -
16/10:00pm - - - - - W 20 22 11 12 - - -
16/09:30pm - - - - - W 17 19 9 10 - - -
16/09:00pm - - - - - WSW 17 22 9 12 - - -
16/08:30pm - - - - - SW 17 20 9 11 - - -
16/08:00pm - - - - - SSW 28 37 15 20 - - -
16/07:30pm - - - - - SSW 28 37 15 20 - - -
16/07:00pm - - - - - S 30 37 16 20 - - -
16/06:30pm - - - - - SSW 26 35 14 19 - - -
16/06:00pm - - - - - SSW 30 41 16 22 - - -
16/05:30pm - - - - - SSW 30 39 16 21 - - -
16/05:00pm - - - - - SSW 30 37 16 20 - - -
16/04:30pm - - - - - S 32 39 17 21 - - -
16/04:00pm - - - - - SSW 30 37 16 20 - - -
16/03:30pm - - - - - S 33 44 18 24 - - -
16/03:00pm - - - - - SSW 35 44 19 24 - - -
16/02:30pm - - - - - SSW 35 48 19 26 - - -
16/02:00pm - - - - - SSW 35 50 19 27 - - -
16/01:30pm - - - - - SSW 35 43 19 23 - - -
16/01:00pm - - - - - SSW 30 37 16 20 - - -
16/12:30pm - - - - - SSW 32 41 17 22 - - -
16/12:00pm - - - - - SSW 32 41 17 22 - - -
16/11:30am - - - - - SSW 33 44 18 24 - - -
16/11:00am - - - - - SSW 35 50 19 27 - - -
16/10:40am - - - - - SSW 32 54 17 29 - - -
16/10:30am - - - - - SW 32 41 17 22 - - -
16/10:00am - - - - - SSW 32 39 17 21 - - -
16/09:30am - - - - - SW 33 43 18 23 - - -
16/09:00am - - - - - SW 30 37 16 20 - - -
16/08:30am - - - - - SW 28 37 15 20 - - -
16/08:00am - - - - - SSW 26 35 14 19 - - -
16/07:30am - - - - - SW 24 33 13 18 - - -
16/07:00am - - - - - SW 24 33 13 18 - - -
16/06:30am - - - - - SW 28 35 15 19 - - -
16/06:00am - - - - - SW 28 41 15 22 - - -
16/05:30am - - - - - SSW 30 41 16 22 - - -
16/05:00am - - - - - SW 28 37 15 20 - - -
16/04:30am - - - - - SW 28 37 15 20 - - -
16/04:00am - - - - - SW 22 33 12 18 - - -
16/03:30am - - - - - SW 28 44 15 24 - - -
16/03:04am - - - - - SW 32 50 17 27 - - -
16/03:00am - - - - - SW 33 50 18 27 - - -
16/02:42am - - - - - SW 33 52 18 28 - - -
16/02:30am - - - - - SW 32 44 17 24 - - -
16/02:27am - - - - - SW 33 52 18 28 - - -
16/02:00am - - - - - SSW 32 44 17 24 - - -
16/01:30am - - - - - SSW 35 44 19 24 - - -
16/01:00am - - - - - SSW 33 44 18 24 - - -
16/12:30am - - - - - SW 20 30 11 16 - - -
16/12:00am - - - - - SW 30 37 16 20 - - -
 
Date/Time
EST
Temp
°C
App
Temp
°C
Dew
Point
Rel
Hum
%
Delta-T
°C
Wind Press
QNH
hPa
Press
MSL
hPa
Rain
since 9 am
mm
Dir
 
Spd
km/h
Gust
km/h
Spd
kts
Gust
kts
15/11:30pm - - - - - WSW 15 26 8 14 - - -
15/11:00pm - - - - - SW 28 39 15 21 - - -
15/10:30pm - - - - - SSW 35 48 19 26 - - -
15/10:00pm - - - - - SSW 26 39 14 21 - - -
15/09:30pm - - - - - SSE 24 35 13 19 - - -
15/09:01pm - - - - - S 28 56 15 30 - - -
15/09:00pm - - - - - S 26 54 14 29 - - -
15/08:40pm - - - - - S 32 50 17 27 - - -
15/08:30pm - - - - - SSE 32 48 17 26 - - -
15/08:00pm - - - - - SSE 32 44 17 24 - - -
15/07:30pm - - - - - S 32 43 17 23 - - -
15/07:03pm - - - - - SSW 37 50 20 27 - - -
15/07:00pm - - - - - SW 30 48 16 26 - - -
15/06:30pm - - - - - SW 20 30 11 16 - - -
15/06:00pm - - - - - SSW 33 48 18 26 - - -
15/05:30pm - - - - - S 35 44 19 24 - - -
15/05:00pm - - - - - S 26 35 14 19 - - -
15/04:30pm - - - - - S 20 30 11 16 - - -
15/04:00pm - - - - - S 20 32 11 17 - - -
15/03:36pm - - - - - SSE 28 46 15 25 - - -
15/03:30pm - - - - - SSE 30 46 16 25 - - -
15/03:18pm - - - - - S 30 48 16 26 - - -
15/03:00pm - - - - - S 39 56 21 30 - - -
15/02:30pm - - - - - SSW 39 56 21 30 - - -
15/02:00pm - - - - - SSW 39 54 21 29 - - -
15/01:30pm - - - - - SSW 35 50 19 27 - - -
15/01:00pm - - - - - SSW 32 39 17 21 - - -
15/12:30pm - - - - - SSW 32 37 17 20 - - -
15/12:00pm - - - - - SW 28 37 15 20 - - -
15/11:30am - - - - - SW 30 37 16 20 - - -
15/11:00am - - - - - SW 28 35 15 19 - - -
15/10:30am - - - - - SW 26 33 14 18 - - -
15/10:00am - - - - - SSW 26 33 14 18 - - -
15/09:30am - - - - - SW 22 32 12 17 - - -
15/09:00am - - - - - W 19 26 10 14 - - -
15/08:30am - - - - - W 20 22 11 12 - - -
15/08:00am - - - - - W 17 20 9 11 - - -
15/07:30am - - - - - W 19 22 10 12 - - -

Other Formats:

Comma delimited format used in spreadsheet applications
http://www.bom.gov.au/fwo/IDN60801/IDN60801.95756.axf

JavaScript Object Notation format (JSON) in row-major order
http://www.bom.gov.au/fwo/IDN60801/IDN60801.95756.json